createdAt,value
2022-08-03T00:01:38.988Z,20.40
2022-08-03T00:04:07.519Z,20.70
2022-08-03T00:06:38.195Z,20.90
2022-08-03T00:09:07.347Z,20.70
2022-08-03T00:11:35.656Z,20.60
2022-08-03T00:14:03.891Z,20.50
2022-08-03T00:16:32.022Z,20.40
2022-08-03T00:19:00.747Z,20.40
2022-08-03T00:21:29.177Z,20.50
2022-08-03T00:23:58.597Z,20.50
2022-08-03T00:26:26.676Z,20.40
2022-08-03T00:28:54.741Z,20.50
2022-08-03T00:31:39.915Z,20.60
2022-08-03T00:34:11.271Z,20.60
2022-08-03T00:36:41.124Z,20.60
2022-08-03T00:39:10.852Z,20.40
2022-08-03T00:41:40.058Z,20.30
2022-08-03T00:44:08.147Z,20.20
2022-08-03T00:46:36.246Z,20.10
2022-08-03T00:49:04.384Z,20.10
2022-08-03T00:51:34.747Z,20.10
2022-08-03T00:54:03.028Z,20.20
2022-08-03T00:56:33.086Z,20.20
2022-08-03T00:59:01.458Z,20.20
2022-08-03T01:01:32.607Z,20.20
2022-08-03T01:04:01.203Z,20.10
2022-08-03T01:06:42.188Z,20.10
2022-08-03T01:09:20.053Z,20.00
2022-08-03T01:12:00.947Z,20.00
2022-08-03T01:14:35.304Z,19.90
2022-08-03T01:17:11.635Z,19.80
2022-08-03T01:19:47.936Z,19.80
2022-08-03T01:22:32.597Z,19.80
2022-08-03T01:25:07.405Z,19.80
2022-08-03T01:27:52.549Z,19.70
2022-08-03T01:30:23.784Z,19.60
2022-08-03T01:33:01.869Z,19.60
2022-08-03T01:35:38.408Z,19.50
2022-08-03T01:38:12.513Z,19.50
2022-08-03T01:40:42.781Z,19.40
2022-08-03T01:43:14.490Z,19.50
2022-08-03T01:46:05.319Z,19.50
2022-08-03T01:48:34.337Z,19.50
2022-08-03T01:51:03.026Z,19.50
2022-08-03T01:53:33.789Z,19.50
2022-08-03T01:56:03.650Z,19.50
2022-08-03T01:58:33.341Z,19.50
2022-08-03T02:01:04.645Z,19.50
2022-08-03T02:03:34.947Z,19.50
2022-08-03T02:07:00.668Z,19.50
2022-08-03T02:08:55.921Z,19.40
2022-08-03T02:11:24.191Z,19.40
2022-08-03T02:13:52.631Z,19.40
2022-08-03T02:16:24.701Z,19.30
2022-08-03T02:18:53.666Z,19.20
2022-08-03T02:21:56.271Z,19.20
2022-08-03T02:24:12.435Z,19.20
2022-08-03T02:26:41.982Z,19.20
2022-08-03T02:29:16.837Z,19.10
2022-08-03T02:31:48.064Z,19.10
2022-08-03T02:34:17.941Z,19.10
2022-08-03T02:36:50.649Z,19.00
2022-08-03T02:39:23.012Z,19.10
2022-08-03T02:41:53.570Z,19.10
2022-08-03T02:44:25.778Z,19.10
2022-08-03T02:46:58.615Z,19.00
2022-08-03T02:49:50.776Z,19.00
2022-08-03T02:52:17.038Z,19.00
2022-08-03T02:54:47.032Z,19.00
2022-08-03T02:57:16.416Z,19.00
2022-08-03T02:59:45.407Z,19.00
2022-08-03T03:02:17.063Z,18.90
2022-08-03T03:05:56.235Z,18.90
2022-08-03T03:07:48.578Z,18.80
2022-08-03T03:10:21.159Z,18.90
2022-08-03T03:12:51.231Z,18.90
2022-08-03T03:15:20.050Z,18.90
2022-08-03T03:17:51.043Z,18.90
2022-08-03T03:20:29.381Z,18.80
2022-08-03T03:23:00.341Z,18.70
2022-08-03T03:25:29.378Z,18.70
2022-08-03T03:27:57.840Z,18.70
2022-08-03T03:30:26.994Z,18.70
2022-08-03T03:32:56.854Z,18.70
2022-08-03T03:35:25.229Z,18.70
2022-08-03T03:37:53.606Z,18.70
2022-08-03T03:40:24.877Z,18.60
2022-08-03T03:42:53.192Z,18.60
2022-08-03T03:45:22.726Z,18.70
2022-08-03T03:47:51.132Z,18.80
2022-08-03T03:50:21.579Z,18.90
2022-08-03T03:52:49.651Z,18.80
2022-08-03T03:55:19.035Z,18.70
2022-08-03T03:57:47.166Z,18.60
2022-08-03T04:00:17.033Z,18.60
2022-08-03T04:02:45.649Z,18.50
2022-08-03T04:05:31.998Z,18.50
2022-08-03T04:08:21.768Z,18.60
2022-08-03T04:11:00.556Z,18.60
2022-08-03T04:13:32.996Z,18.60
2022-08-03T04:16:02.192Z,18.70
2022-08-03T04:18:33.598Z,18.80
2022-08-03T04:21:04.548Z,18.80
2022-08-03T04:23:36.698Z,19.00
2022-08-03T04:26:09.580Z,19.00
2022-08-03T04:28:38.588Z,19.20
2022-08-03T04:31:08.449Z,19.80
2022-08-03T04:33:39.526Z,20.40
2022-08-03T04:36:12.235Z,21.00
2022-08-03T04:38:50.552Z,21.60
2022-08-03T04:41:20.778Z,22.00
2022-08-03T04:43:50.226Z,22.20
2022-08-03T04:46:19.677Z,22.10
2022-08-03T04:48:48.021Z,21.90
2022-08-03T04:51:16.483Z,21.60
2022-08-03T04:53:45.959Z,21.40
2022-08-03T04:56:14.114Z,21.20
2022-08-03T04:58:42.185Z,20.90
2022-08-03T05:01:10.419Z,20.80
2022-08-03T05:03:38.561Z,20.60
2022-08-03T05:06:11.408Z,20.50
2022-08-03T05:08:45.919Z,20.50
2022-08-03T05:11:16.622Z,20.50
2022-08-03T05:13:45.115Z,20.60
2022-08-03T05:16:13.915Z,20.60
2022-08-03T05:18:42.299Z,20.70
2022-08-03T05:21:10.789Z,20.70
2022-08-03T05:23:38.799Z,20.80
2022-08-03T05:26:06.872Z,20.90
2022-08-03T05:28:36.241Z,21.00
2022-08-03T05:31:04.302Z,21.20
2022-08-03T05:33:32.461Z,21.20
2022-08-03T05:36:04.306Z,21.30
2022-08-03T05:38:34.744Z,21.40
2022-08-03T05:41:22.906Z,21.50
2022-08-03T05:43:54.107Z,21.60
2022-08-03T05:46:22.446Z,21.70
2022-08-03T05:48:50.902Z,21.80
2022-08-03T05:51:19.088Z,21.90
2022-08-03T05:53:47.163Z,22.00
2022-08-03T05:56:16.549Z,22.20
2022-08-03T05:58:46.808Z,22.20
2022-08-03T06:01:17.873Z,22.40
2022-08-03T06:03:46.078Z,22.50
2022-08-03T06:06:14.440Z,22.60
2022-08-03T06:08:43.013Z,22.90
2022-08-03T06:11:11.218Z,23.10
2022-08-03T06:13:40.024Z,23.50
2022-08-03T06:16:08.147Z,23.60
2022-08-03T06:18:38.886Z,23.60
2022-08-03T06:21:14.075Z,23.70
2022-08-03T06:23:54.307Z,24.70
2022-08-03T06:26:28.676Z,26.50
2022-08-03T06:28:57.417Z,28.50
2022-08-03T06:31:33.436Z,29.90
2022-08-03T06:34:34.262Z,30.70
2022-08-03T06:36:53.011Z,29.80
2022-08-03T06:39:23.724Z,29.90
2022-08-03T06:41:53.528Z,30.70
2022-08-03T06:44:21.876Z,31.90
2022-08-03T06:46:51.193Z,31.20
2022-08-03T06:49:20.948Z,30.30
2022-08-03T06:52:03.000Z,30.40
2022-08-03T06:54:36.124Z,32.00
2022-08-03T06:57:05.241Z,32.70
2022-08-03T07:00:08.644Z,33.10
2022-08-03T07:02:21.505Z,33.80
2022-08-03T07:04:51.143Z,34.40
2022-08-03T07:07:20.625Z,34.50
2022-08-03T07:09:56.753Z,35.10
2022-08-03T07:12:27.520Z,34.90
2022-08-03T07:15:00.708Z,35.60
2022-08-03T07:17:30.483Z,34.90
2022-08-03T07:20:00.498Z,34.60
2022-08-03T07:22:29.449Z,34.20
2022-08-03T07:24:57.677Z,33.90
2022-08-03T07:27:26.997Z,33.80
2022-08-03T07:29:55.874Z,34.00
2022-08-03T07:32:24.129Z,34.30
2022-08-03T07:34:56.946Z,34.50
2022-08-03T07:37:33.172Z,35.10
2022-08-03T07:40:01.958Z,35.00
2022-08-03T07:42:30.846Z,35.60
2022-08-03T07:44:59.175Z,36.10
2022-08-03T07:47:35.066Z,36.60
2022-08-03T07:50:05.032Z,35.80
2022-08-03T07:52:49.514Z,36.00
2022-08-03T07:55:18.262Z,36.70
2022-08-03T07:57:46.467Z,36.80
2022-08-03T08:00:17.052Z,37.30
2022-08-03T08:02:45.723Z,38.00
2022-08-03T08:05:14.262Z,37.80
2022-08-03T08:07:43.668Z,37.10
2022-08-03T08:10:12.274Z,36.90
2022-08-03T08:12:41.619Z,36.30
2022-08-03T08:15:10.249Z,36.40
2022-08-03T08:17:45.960Z,37.20
2022-08-03T08:20:23.781Z,37.60
2022-08-03T08:23:01.230Z,37.50
2022-08-03T08:25:31.039Z,37.50
2022-08-03T08:28:29.371Z,37.30
2022-08-03T08:30:50.218Z,37.10
2022-08-03T08:33:23.058Z,37.00
2022-08-03T08:35:53.482Z,37.20
2022-08-03T08:38:23.193Z,37.80
2022-08-03T08:40:51.775Z,38.40
2022-08-03T08:43:19.824Z,38.20
2022-08-03T08:45:50.080Z,38.60
2022-08-03T08:48:23.410Z,38.10
2022-08-03T08:50:54.397Z,38.30
2022-08-03T08:53:27.580Z,38.40
2022-08-03T08:56:00.758Z,39.10
2022-08-03T08:58:32.165Z,39.00
2022-08-03T09:01:00.391Z,38.80
2022-08-03T09:03:29.855Z,38.90
2022-08-03T09:06:02.355Z,39.40
2022-08-03T09:08:33.274Z,39.60
2022-08-03T09:11:01.661Z,39.50
2022-08-03T09:13:30.596Z,38.90
2022-08-03T09:16:15.528Z,38.60
2022-08-03T09:18:44.576Z,37.70
2022-08-03T09:21:34.489Z,38.10
2022-08-03T09:24:12.961Z,38.70
2022-08-03T09:26:53.700Z,38.60
2022-08-03T09:29:23.687Z,38.30
2022-08-03T09:32:01.816Z,38.50
2022-08-03T09:34:30.512Z,39.30
2022-08-03T09:36:58.966Z,40.00
2022-08-03T09:39:41.016Z,39.30
2022-08-03T09:42:14.872Z,39.40
2022-08-03T09:44:45.287Z,40.00
2022-08-03T09:47:16.116Z,39.80
2022-08-03T09:49:59.081Z,38.30
2022-08-03T09:52:39.006Z,39.30
2022-08-03T09:56:01.614Z,39.50
2022-08-03T09:58:10.417Z,40.30
2022-08-03T10:00:55.624Z,40.30
2022-08-03T10:03:24.141Z,40.50
2022-08-03T10:05:57.453Z,40.00
2022-08-03T10:08:27.189Z,39.70
2022-08-03T10:10:58.555Z,39.80
2022-08-03T10:13:26.667Z,39.20
2022-08-03T10:16:21.661Z,38.90
2022-08-03T10:18:42.995Z,39.10
2022-08-03T10:21:17.594Z,39.60
2022-08-03T10:23:46.683Z,40.20
2022-08-03T10:26:23.606Z,39.30
2022-08-03T10:28:55.185Z,38.70
2022-08-03T10:31:25.011Z,38.90
2022-08-03T10:33:59.001Z,38.90
2022-08-03T10:36:31.442Z,39.30
2022-08-03T10:39:01.241Z,39.40
2022-08-03T10:41:36.798Z,39.60
2022-08-03T10:44:07.848Z,38.90
2022-08-03T10:46:40.332Z,38.90
2022-08-03T10:49:14.985Z,39.10
2022-08-03T10:51:43.777Z,39.30
2022-08-03T10:54:59.677Z,40.00
2022-08-03T10:57:48.779Z,39.90
2022-08-03T11:00:18.689Z,39.10
2022-08-03T11:03:18.671Z,39.50
2022-08-03T11:05:48.313Z,39.80
2022-08-03T11:08:21.303Z,39.50
2022-08-03T11:10:50.131Z,39.80
2022-08-03T11:13:21.395Z,39.50
2022-08-03T11:15:52.694Z,39.60
2022-08-03T11:18:21.056Z,38.40
2022-08-03T11:20:56.246Z,38.90
2022-08-03T11:24:05.225Z,39.10
2022-08-03T11:26:31.302Z,39.70
2022-08-03T11:29:30.424Z,39.90
2022-08-03T11:31:58.623Z,39.40
2022-08-03T11:34:27.192Z,39.10
2022-08-03T11:37:27.249Z,38.50
2022-08-03T11:39:58.337Z,37.50
2022-08-03T11:42:48.549Z,38.00
2022-08-03T11:45:19.927Z,37.90
2022-08-03T11:47:51.448Z,37.70
2022-08-03T11:50:21.297Z,37.70
2022-08-03T11:52:51.859Z,37.40
2022-08-03T11:55:22.016Z,37.30
2022-08-03T11:59:00.885Z,37.50
2022-08-03T12:00:40.638Z,37.70
2022-08-03T12:03:11.141Z,37.80
2022-08-03T12:05:51.394Z,37.50
2022-08-03T12:08:32.211Z,37.10
2022-08-03T12:11:03.087Z,36.80
2022-08-03T12:14:44.307Z,37.40
2022-08-03T12:16:31.611Z,37.30
2022-08-03T12:19:01.383Z,37.60
2022-08-03T12:21:30.784Z,37.00
2022-08-03T12:24:00.492Z,36.20
2022-08-03T12:26:29.667Z,36.70
2022-08-03T12:28:58.430Z,37.50
2022-08-03T12:31:26.821Z,38.00
2022-08-03T12:34:03.671Z,38.40
2022-08-03T12:36:34.071Z,38.30
2022-08-03T12:39:05.627Z,38.20
2022-08-03T12:41:35.865Z,38.20
2022-08-03T12:44:05.017Z,37.90
2022-08-03T12:46:35.725Z,38.60
2022-08-03T12:49:11.105Z,39.20
2022-08-03T12:51:57.377Z,39.40
2022-08-03T12:54:26.613Z,39.50
2022-08-03T12:57:01.975Z,39.20
2022-08-03T12:59:34.887Z,39.00
2022-08-03T13:02:09.376Z,39.60
2022-08-03T13:04:39.329Z,39.20
2022-08-03T13:07:14.085Z,39.50
2022-08-03T13:09:44.248Z,39.80
2022-08-03T13:12:14.608Z,39.60
2022-08-03T13:14:43.863Z,39.60
2022-08-03T13:17:12.100Z,39.60
2022-08-03T13:19:41.973Z,39.20
2022-08-03T13:22:13.746Z,39.10
2022-08-03T13:24:41.913Z,39.40
2022-08-03T13:28:02.149Z,39.70
2022-08-03T13:29:59.741Z,38.70
2022-08-03T13:32:27.866Z,39.40
2022-08-03T13:34:57.250Z,39.80
2022-08-03T13:37:25.705Z,39.80
2022-08-03T13:39:58.768Z,39.50
2022-08-03T13:42:30.462Z,39.30
2022-08-03T13:44:59.033Z,39.40
2022-08-03T13:47:27.579Z,38.90
2022-08-03T13:50:00.947Z,38.80
2022-08-03T13:52:32.652Z,39.00
2022-08-03T13:55:01.012Z,39.10
2022-08-03T13:58:03.675Z,38.10
2022-08-03T14:00:27.024Z,37.20
2022-08-03T14:03:02.711Z,37.60
2022-08-03T14:05:33.103Z,38.50
2022-08-03T14:08:04.983Z,38.30
2022-08-03T14:10:34.031Z,38.70
2022-08-03T14:13:02.127Z,39.10
2022-08-03T14:15:30.117Z,39.10
2022-08-03T14:17:59.079Z,39.00
2022-08-03T14:20:38.050Z,38.90
2022-08-03T14:23:09.248Z,39.40
2022-08-03T14:25:43.624Z,39.90
2022-08-03T14:28:19.303Z,40.20
2022-08-03T14:30:48.588Z,40.30
2022-08-03T14:33:16.868Z,39.50
2022-08-03T14:35:44.938Z,38.90
2022-08-03T14:38:14.368Z,39.00
2022-08-03T14:40:42.625Z,39.30
2022-08-03T14:43:10.685Z,39.70
2022-08-03T14:45:39.243Z,40.00
2022-08-03T14:50:30.061Z,39.80
2022-08-03T14:50:56.772Z,39.30
2022-08-03T14:53:26.343Z,39.00
2022-08-03T14:55:54.455Z,39.30
2022-08-03T14:58:25.285Z,39.40
2022-08-03T15:00:55.485Z,38.70
2022-08-03T15:03:25.267Z,38.70
2022-08-03T15:05:54.240Z,39.10
2022-08-03T15:08:23.348Z,39.20
2022-08-03T15:10:53.454Z,39.20
2022-08-03T15:13:21.744Z,39.40
2022-08-03T15:15:51.802Z,39.50
2022-08-03T15:18:21.137Z,39.40
2022-08-03T15:20:50.583Z,39.40
2022-08-03T15:23:19.188Z,39.30
2022-08-03T15:26:03.631Z,39.40
2022-08-03T15:28:37.856Z,39.00
2022-08-03T15:31:07.173Z,38.80
2022-08-03T15:33:35.400Z,38.80
2022-08-03T15:36:04.084Z,38.40
2022-08-03T15:38:32.129Z,38.50
2022-08-03T15:41:00.361Z,38.10
2022-08-03T15:43:28.373Z,37.60
2022-08-03T15:46:27.598Z,37.90
2022-08-03T15:48:47.178Z,38.40
2022-08-03T15:51:15.547Z,38.60
2022-08-03T15:53:43.732Z,38.90
2022-08-03T15:56:18.129Z,38.90
2022-08-03T15:59:09.356Z,38.70
2022-08-03T16:01:36.367Z,38.90
2022-08-03T16:04:04.697Z,38.80
2022-08-03T16:06:35.069Z,38.90
2022-08-03T16:09:23.097Z,39.20
2022-08-03T16:11:54.466Z,39.00
2022-08-03T16:14:33.537Z,38.70
2022-08-03T16:17:05.466Z,38.70
2022-08-03T16:19:33.706Z,38.40
2022-08-03T16:22:01.728Z,38.50
2022-08-03T16:24:31.787Z,38.40
2022-08-03T16:27:00.450Z,38.10
2022-08-03T16:29:29.491Z,38.10
2022-08-03T16:31:57.706Z,38.50
2022-08-03T16:34:27.099Z,38.70
2022-08-03T16:36:55.702Z,38.60
2022-08-03T16:39:23.851Z,38.20
2022-08-03T16:41:54.436Z,38.10
2022-08-03T16:44:31.075Z,38.20
2022-08-03T16:46:59.637Z,38.10
2022-08-03T16:49:54.162Z,37.90
2022-08-03T16:52:18.098Z,37.80
2022-08-03T16:54:53.118Z,37.30
2022-08-03T16:57:56.012Z,37.40
2022-08-03T17:00:33.939Z,37.40
2022-08-03T17:03:04.088Z,37.30
2022-08-03T17:05:47.441Z,36.80
2022-08-03T17:08:16.193Z,36.80
2022-08-03T17:10:47.036Z,36.60
2022-08-03T17:13:15.237Z,36.60
2022-08-03T17:16:00.665Z,36.60
2022-08-03T17:18:35.247Z,36.40
2022-08-03T17:21:06.060Z,36.00
2022-08-03T17:23:42.167Z,35.50
2022-08-03T17:26:21.178Z,35.00
2022-08-03T17:28:58.372Z,34.40
2022-08-03T17:31:31.843Z,34.00
2022-08-03T17:34:04.466Z,33.80
2022-08-03T17:37:02.223Z,33.60
2022-08-03T17:39:41.904Z,33.40
2022-08-03T17:42:30.466Z,33.10
2022-08-03T17:45:01.712Z,33.00
2022-08-03T17:47:57.283Z,32.90
2022-08-03T17:50:34.155Z,32.80
2022-08-03T17:53:23.950Z,32.70
2022-08-03T17:56:04.572Z,32.60
2022-08-03T17:58:45.828Z,32.40
2022-08-03T18:02:02.589Z,32.30
2022-08-03T18:04:34.553Z,32.20
2022-08-03T18:07:11.186Z,32.10
2022-08-03T18:10:04.945Z,32.00
2022-08-03T18:12:42.548Z,32.00
2022-08-03T18:15:21.284Z,31.90
2022-08-03T18:17:55.987Z,31.80
2022-08-03T18:20:40.873Z,31.70
2022-08-03T18:23:11.402Z,31.60
2022-08-03T18:25:59.210Z,31.60
2022-08-03T18:28:28.864Z,31.50
2022-08-03T18:30:57.789Z,31.40
2022-08-03T18:34:19.774Z,31.30
2022-08-03T18:36:30.534Z,31.20
2022-08-03T18:39:14.097Z,31.00
2022-08-03T18:42:01.413Z,30.80
2022-08-03T18:44:38.108Z,30.70
2022-08-03T18:47:50.841Z,30.50
2022-08-03T18:50:27.045Z,30.30
2022-08-03T18:53:03.625Z,30.20
2022-08-03T18:55:35.278Z,30.10
2022-08-03T18:58:18.172Z,30.00
2022-08-03T19:00:54.305Z,29.80
2022-08-03T19:03:41.582Z,29.70
2022-08-03T19:06:20.047Z,29.80
2022-08-03T19:08:53.524Z,29.60
2022-08-03T19:11:27.871Z,29.50
2022-08-03T19:14:00.356Z,29.30
2022-08-03T19:16:35.506Z,29.20
2022-08-03T19:19:14.534Z,29.00
2022-08-03T19:21:45.997Z,28.90
2022-08-03T19:24:22.242Z,28.90
2022-08-03T19:26:56.020Z,28.90
2022-08-03T19:29:59.386Z,29.10
2022-08-03T19:32:15.741Z,29.00
2022-08-03T19:34:46.605Z,28.80
2022-08-03T19:37:15.636Z,28.80
2022-08-03T19:39:44.473Z,28.70
2022-08-03T19:42:31.249Z,28.50
2022-08-03T19:45:13.939Z,28.20
2022-08-03T19:47:46.974Z,28.10
2022-08-03T19:50:16.334Z,28.00
2022-08-03T19:52:51.579Z,27.80
2022-08-03T19:55:52.976Z,27.80
2022-08-03T19:58:36.559Z,27.60
2022-08-03T20:01:19.216Z,27.40
2022-08-03T20:03:52.219Z,27.30
2022-08-03T20:06:25.308Z,27.30
2022-08-03T20:08:55.032Z,27.30
2022-08-03T20:11:28.814Z,27.20
2022-08-03T20:13:58.679Z,27.30
2022-08-03T20:16:28.235Z,27.30
2022-08-03T20:19:02.916Z,27.30
2022-08-03T20:21:46.932Z,27.40
2022-08-03T20:24:24.449Z,27.30
2022-08-03T20:26:54.641Z,27.10
2022-08-03T20:30:04.852Z,27.00
2022-08-03T20:32:20.060Z,26.90
2022-08-03T20:34:53.357Z,26.90
2022-08-03T20:37:21.487Z,26.90
2022-08-03T20:39:49.947Z,27.10
2022-08-03T20:42:21.417Z,27.20
2022-08-03T20:45:05.127Z,27.20
2022-08-03T20:47:41.606Z,27.20
2022-08-03T20:50:22.107Z,27.10
2022-08-03T20:52:50.776Z,27.00
2022-08-03T20:55:20.387Z,26.90
2022-08-03T20:58:08.241Z,26.80
2022-08-03T21:00:36.437Z,26.70
2022-08-03T21:03:06.814Z,26.50
2022-08-03T21:05:48.354Z,26.50
2022-08-03T21:08:22.033Z,26.50
2022-08-03T21:10:51.864Z,26.50
2022-08-03T21:13:25.693Z,26.30
2022-08-03T21:16:06.045Z,26.30
2022-08-03T21:18:47.214Z,26.30
2022-08-03T21:21:17.622Z,26.40
2022-08-03T21:23:49.772Z,26.40
2022-08-03T21:26:19.855Z,26.40
2022-08-03T21:28:49.252Z,26.40
2022-08-03T21:31:24.750Z,26.20
2022-08-03T21:33:57.405Z,26.10
2022-08-03T21:36:28.281Z,25.90
2022-08-03T21:38:57.390Z,25.90
2022-08-03T21:41:26.840Z,25.80
2022-08-03T21:43:54.994Z,25.80
2022-08-03T21:46:23.884Z,25.70
2022-08-03T21:49:51.893Z,25.60
2022-08-03T21:51:49.777Z,25.40
2022-08-03T21:54:18.831Z,25.30
2022-08-03T21:56:48.660Z,25.20
2022-08-03T21:59:19.312Z,25.20
2022-08-03T22:01:51.426Z,25.30
2022-08-03T22:04:50.801Z,25.30
2022-08-03T22:07:13.906Z,25.30
2022-08-03T22:09:51.433Z,25.20
2022-08-03T22:12:22.847Z,25.10
2022-08-03T22:15:01.400Z,25.10
2022-08-03T22:17:55.240Z,25.00
2022-08-03T22:20:22.557Z,24.90
2022-08-03T22:22:55.880Z,24.80
2022-08-03T22:25:28.808Z,24.80
2022-08-03T22:27:59.149Z,24.70
2022-08-03T22:30:28.353Z,24.70
2022-08-03T22:32:57.559Z,24.70
2022-08-03T22:35:28.315Z,24.70
2022-08-03T22:37:59.527Z,24.60
2022-08-03T22:40:28.748Z,24.60
2022-08-03T22:42:57.724Z,24.50
2022-08-03T22:46:10.029Z,24.40
2022-08-03T22:48:17.409Z,24.40
2022-08-03T22:50:47.781Z,24.20
2022-08-03T22:53:18.682Z,24.10
2022-08-03T22:55:48.445Z,24.00
2022-08-03T22:58:16.792Z,24.00
2022-08-03T23:00:48.495Z,23.90
2022-08-03T23:03:24.823Z,24.00
2022-08-03T23:06:00.649Z,23.90
2022-08-03T23:08:33.881Z,23.80
2022-08-03T23:11:08.374Z,23.80
2022-08-03T23:13:40.027Z,23.70
2022-08-03T23:16:09.759Z,23.60
2022-08-03T23:18:40.572Z,23.50
2022-08-03T23:21:11.209Z,23.50
2022-08-03T23:23:43.835Z,23.40
2022-08-03T23:26:14.022Z,23.40
2022-08-03T23:28:46.088Z,23.40
2022-08-03T23:31:15.716Z,23.40
2022-08-03T23:33:46.015Z,23.40
2022-08-03T23:36:30.704Z,23.30
2022-08-03T23:39:02.591Z,23.30
2022-08-03T23:41:31.171Z,23.30
2022-08-03T23:44:01.833Z,23.30
2022-08-03T23:46:31.990Z,23.30
2022-08-03T23:49:00.731Z,23.30
2022-08-03T23:51:39.996Z,23.20
2022-08-03T23:54:17.401Z,23.20
2022-08-03T23:56:53.831Z,23.20
2022-08-03T23:59:32.339Z,23.00
